Cypress, Florida
Current Conditions -  °F | °C
As of 5:53 PM on Sunday 23 Nov 2014 (Local Time) from KMAI Reporting Station
Light Rain Light Rain  
Wind Chill: 65°   Ceiling: 7000
Heat Index: 65°   Visibility: 8mi
Dew Point: 65°   Wind: 12mph
Humidity: 100%   Direction: 200°SSW
Pressure: 29.78"   Gusts: NA
Location:  30.71°N, 85.07°W
Report Text: KMAI 232353Z AUTO 20010KT 8SM -RA SCT050 BKN070 OVC080 18/18 A2978 RMK AO2 LTG DSNT SE SLP083 P0002 60073 T01830183 10250 20178 53003 $
Loading
Personal Weather Stations






























Interactive Weather Map New forecast layout! Learn more

10-Day Weather Forecast

Advertisements
Track Severe Weather on mobile